Time;durP1;ratioP1;P1;durP2;ratioP2;P2;SDS_P1;SDS_P2;PMS_P1;PMS_P2;Temp;Humidity;BMP_temperature;BMP_pressure;BME280_temperature;BME280_humidity;BME280_pressure;Samples;Min_cycle;Max_cycle;Signal;HPM_P1;HPM_P2
2023/04/17 00:02:14;;;;;;;0.20;0.20;;;;;;;7.95;27.11;100863.66;4949096;29;20073;-69
2023/04/17 00:04:41;;;;;;;0.20;0.20;;;;;;;7.89;27.39;100861.88;4950912;29;20418;-69
2023/04/17 00:07:10;;;;;;;0.20;0.20;;;;;;;7.87;27.50;100866.69;4949013;29;20466;-70
2023/04/17 00:09:36;;;;;;;0.10;0.10;;;;;;;7.84;27.50;100867.16;4948379;29;20075;-69
2023/04/17 00:12:02;;;;;;;0.10;0.10;;;;;;;7.87;27.48;100861.25;4949739;29;20063;-69
2023/04/17 00:14:28;;;;;;;0.10;0.10;;;;;;;7.85;27.47;100857.94;4933308;29;20055;-69
2023/04/17 00:16:55;;;;;;;0.20;0.20;;;;;;;7.86;27.50;100861.50;4949976;29;20058;-69
2023/04/17 00:19:21;;;;;;;0.15;0.15;;;;;;;7.83;27.81;100856.53;4950957;29;20318;-69
2023/04/17 00:21:47;;;;;;;0.10;0.10;;;;;;;7.76;27.89;100862.06;4932872;29;20110;-69
2023/04/17 00:24:15;;;;;;;0.10;0.10;;;;;;;7.72;28.22;100861.69;4951759;29;20586;-69
2023/04/17 00:26:41;;;;;;;;;;;;;;;7.67;28.18;100858.81;4950632;29;20411;-69
2023/04/17 00:29:07;;;;;;;0.10;0.10;;;;;;;7.65;28.29;100855.50;4948935;29;19926;-69
2023/04/17 00:31:33;;;;;;;0.10;0.10;;;;;;;7.59;28.26;100856.41;4932310;29;20102;-69
2023/04/17 00:34:00;;;;;;;0.10;0.10;;;;;;;7.55;28.30;100858.75;4950227;29;20507;-69
2023/04/17 00:36:28;;;;;;;0.10;0.10;;;;;;;7.54;28.31;100859.81;4933320;29;20517;-69
2023/04/17 00:38:54;;;;;;;0.10;0.10;;;;;;;7.55;28.70;100858.75;4948123;29;20079;-69
2023/04/17 00:41:22;;;;;;;0.10;0.10;;;;;;;7.54;28.55;100864.44;4932941;29;20055;-69
2023/04/17 00:43:49;;;;;;;0.25;0.10;;;;;;;7.51;28.38;100861.13;4947301;29;20134;-70
2023/04/17 00:46:15;;;;;;;0.10;0.10;;;;;;;7.47;28.57;100856.34;4933714;29;20048;-69
2023/04/17 00:48:43;;;;;;;0.20;0.20;;;;;;;7.45;28.65;100861.19;4932918;29;20483;-69
2023/04/17 00:51:09;;;;;;;0.10;0.10;;;;;;;7.44;28.77;100863.06;4951739;29;20051;-69
2023/04/17 00:53:36;;;;;;;0.10;0.10;;;;;;;7.42;28.79;100850.75;4951131;29;20051;-69
2023/04/17 00:56:04;;;;;;;0.10;0.10;;;;;;;7.45;28.78;100864.72;4934275;29;20129;-69
2023/04/17 00:58:34;;;;;;;0.10;0.10;;;;;;;7.41;28.84;100858.09;4933706;29;20507;-69
2023/04/17 01:01:00;;;;;;;0.10;0.10;;;;;;;7.43;29.02;100855.16;4933552;29;20119;-69
2023/04/17 01:03:28;;;;;;;0.15;0.15;;;;;;;7.40;29.11;100855.59;4948443;29;20047;-69
2023/04/17 01:05:55;;;;;;;0.47;0.20;;;;;;;7.41;29.09;100865.41;4931479;29;20143;-68
2023/04/17 01:08:21;;;;;;;0.20;0.20;;;;;;;7.39;29.29;100860.22;4945498;29;20452;-69
2023/04/17 01:10:47;;;;;;;0.10;0.10;;;;;;;7.35;29.29;100854.38;4948976;29;20134;-68
2023/04/17 01:13:14;;;;;;;0.10;0.10;;;;;;;7.39;29.23;100862.94;4914130;29;20119;-69
2023/04/17 01:15:43;;;;;;;0.10;0.10;;;;;;;7.32;29.18;100845.84;4931605;29;20063;-69
2023/04/17 01:18:10;;;;;;;0.10;0.10;;;;;;;7.37;29.19;100856.88;4927965;29;20051;-69
2023/04/17 01:20:36;;;;;;;0.10;0.10;;;;;;;7.32;29.26;100848.56;4930042;29;20135;-69
2023/04/17 01:23:02;;;;;;;0.10;0.10;;;;;;;7.35;29.37;100861.72;4930250;29;20051;-69
2023/04/17 01:25:30;;;;;;;0.10;0.10;;;;;;;7.35;29.33;100859.00;4930126;29;20039;-69
2023/04/17 01:27:56;;;;;;;0.10;0.10;;;;;;;7.34;29.50;100860.88;4929798;29;20050;-69
2023/04/17 01:30:23;;;;;;;0.32;0.17;;;;;;;7.30;29.36;100856.13;4913848;29;20040;-69
2023/04/17 01:32:55;;;;;;;0.10;0.10;;;;;;;7.31;29.66;100852.34;4931218;29;20058;-70
2023/04/17 01:35:22;;;;;;;0.10;0.10;;;;;;;7.28;29.94;100853.63;4946952;28;20142;-70
2023/04/17 01:37:48;;;;;;;0.17;0.17;;;;;;;7.30;30.02;100856.13;4929325;29;20098;-69
2023/04/17 01:40:14;;;;;;;0.10;0.10;;;;;;;7.28;29.94;100859.09;4925522;29;20055;-69
2023/04/17 01:42:42;;;;;;;0.10;0.10;;;;;;;7.29;29.85;100855.31;4930137;29;20051;-69
2023/04/17 01:45:09;;;;;;;0.20;0.20;;;;;;;7.28;30.00;100859.09;4914660;29;20660;-69
2023/04/17 01:47:35;;;;;;;0.10;0.10;;;;;;;7.23;29.76;100848.03;4931029;29;20075;-69
2023/04/17 01:50:02;;;;;;;0.10;0.10;;;;;;;7.22;29.79;100854.53;4931285;29;20106;-68
2023/04/17 01:52:30;;;;;;;0.10;0.10;;;;;;;7.18;29.83;100858.78;4915473;29;20155;-69
2023/04/17 01:54:56;;;;;;;0.10;0.10;;;;;;;7.19;30.27;100861.28;4932924;29;20054;-69
2023/04/17 01:57:23;;;;;;;0.10;0.10;;;;;;;7.15;30.45;100853.78;4932471;29;20055;-70
2023/04/17 01:59:51;;;;;;;0.20;0.20;;;;;;;7.16;30.50;100856.25;4932464;29;20103;-70
2023/04/17 02:02:17;;;;;;;0.10;0.10;;;;;;;7.16;30.65;100861.69;4915173;29;20060;-69
2023/04/17 02:04:43;;;;;;;0.13;0.13;;;;;;;7.16;30.67;100858.16;4929564;29;20040;-70
2023/04/17 02:07:09;;;;;;;0.10;0.10;;;;;;;7.12;30.48;100857.78;4932078;29;20051;-70
2023/04/17 02:09:36;;;;;;;0.10;0.10;;;;;;;7.08;30.29;100851.94;4948303;28;20546;-70
2023/04/17 02:12:02;;;;;;;0.10;0.10;;;;;;;7.04;30.31;100852.66;4933613;28;20507;-70
2023/04/17 02:14:29;;;;;;;0.15;0.15;;;;;;;7.04;30.39;100858.91;4934598;29;20079;-70
2023/04/17 02:16:58;;;;;;;0.10;0.10;;;;;;;6.93;30.43;100838.72;4934110;29;20051;-70
2023/04/17 02:19:24;;;;;;;0.10;0.10;;;;;;;7.00;30.60;100846.81;4935059;29;20051;-70
2023/04/17 02:21:50;;;;;;;0.65;0.20;;;;;;;7.00;30.60;100851.41;4950364;29;20049;-70
2023/04/17 02:24:16;;;;;;;0.10;0.10;;;;;;;7.03;30.71;100861.88;4937122;29;20077;-70
2023/04/17 02:26:42;;;;;;;0.10;0.10;;;;;;;7.01;30.69;100858.50;4933823;29;20043;-70
2023/04/17 02:29:12;;;;;;;0.10;0.10;;;;;;;6.99;30.58;100850.59;4920453;29;20075;-71
2023/04/17 02:31:40;;;;;;;0.20;0.20;;;;;;;7.05;30.49;100848.88;4935013;29;20054;-70
2023/04/17 02:34:07;;;;;;;0.10;0.10;;;;;;;7.08;30.37;100849.22;4917717;29;20054;-70
2023/04/17 02:36:34;;;;;;;0.10;0.10;;;;;;;7.11;30.25;100849.88;4934821;29;20071;-70
2023/04/17 02:39:00;;;;;;;0.17;0.17;;;;;;;7.10;30.41;100854.47;4952391;29;20471;-70
2023/04/17 02:41:26;;;;;;;0.10;0.10;;;;;;;7.15;30.41;100854.59;4920723;29;20047;-70
2023/04/17 02:43:52;;;;;;;0.10;0.10;;;;;;;7.16;30.26;100856.25;4953220;29;20051;-70
2023/04/17 02:46:18;;;;;;;0.10;0.10;;;;;;;7.15;30.21;100846.44;4935431;29;20051;-71
2023/04/17 02:48:45;;;;;;;0.43;0.20;;;;;;;7.15;30.19;100851.06;4937527;29;20059;-70
2023/04/17 02:51:13;;;;;;;0.10;0.10;;;;;;;7.21;30.41;100852.88;4953825;29;20150;-70
2023/04/17 02:53:40;;;;;;;0.20;0.20;;;;;;;7.24;30.56;100849.69;4934282;29;20145;-70
2023/04/17 02:56:06;;;;;;;0.10;0.10;;;;;;;7.32;30.49;100846.69;4918510;29;20471;-70
2023/04/17 02:58:33;;;;;;;0.70;0.20;;;;;;;7.38;30.30;100851.19;4920569;29;20047;-70
2023/04/17 03:01:01;;;;;;;0.10;0.10;;;;;;;7.46;30.06;100860.13;4933701;29;20049;-70
2023/04/17 03:03:33;;;;;;;0.20;0.20;;;;;;;7.46;30.07;100857.41;4948938;28;20099;-70
2023/04/17 03:06:02;;;;;;;0.10;0.10;;;;;;;7.47;30.14;100856.34;4950772;28;20047;-69
2023/04/17 03:08:34;;;;;;;0.20;0.20;;;;;;;7.51;29.99;100844.78;4932269;29;20047;-70
2023/04/17 03:11:01;;;;;;;0.10;0.10;;;;;;;7.55;30.49;100849.75;4935742;29;20174;-70
2023/04/17 03:13:27;;;;;;;0.10;0.10;;;;;;;7.56;30.50;100851.41;4933487;29;20066;-70
2023/04/17 03:15:53;;;;;;;0.10;0.10;;;;;;;7.52;30.97;100851.88;4933534;29;20081;-70
2023/04/17 03:18:20;;;;;;;0.43;0.20;;;;;;;7.57;31.42;100855.81;4935634;29;20075;-70
2023/04/17 03:20:46;;;;;;;0.20;0.20;;;;;;;7.56;31.70;100843.25;4949814;29;20051;-71
2023/04/17 03:23:12;;;;;;;0.15;0.15;;;;;;;7.51;31.89;100849.38;4949101;29;20074;-70
2023/04/17 03:25:40;;;;;;;0.13;0.13;;;;;;;7.49;32.24;100857.78;4934335;29;20055;-70
2023/04/17 03:28:07;;;;;;;0.20;0.20;;;;;;;7.45;31.59;100856.56;4949283;29;20067;-70
2023/04/17 03:30:33;;;;;;;0.20;0.20;;;;;;;7.44;31.66;100857.63;4933841;29;20043;-70
2023/04/17 03:33:04;;;;;;;0.30;0.30;;;;;;;7.46;31.62;100873.72;4949163;29;20084;-70
2023/04/17 03:35:31;;;;;;;0.73;0.30;;;;;;;7.46;32.40;100876.47;4933906;29;20400;-69
2023/04/17 03:37:58;;;;;;;0.20;0.20;;;;;;;7.51;31.99;100876.59;4949785;29;20055;-69
2023/04/17 03:40:24;;;;;;;0.20;0.20;;;;;;;7.52;31.31;100876.38;4919530;29;20082;-69
2023/04/17 03:42:52;;;;;;;0.15;0.13;;;;;;;7.55;31.27;100879.69;4950068;29;20079;-69
2023/04/17 03:45:18;;;;;;;;;;;;;;;7.61;31.11;100886.94;4951999;29;20102;-70
2023/04/17 03:47:46;;;;;;;0.10;0.10;;;;;;;7.63;30.66;100884.81;4934001;29;20390;-70
2023/04/17 03:50:13;;;;;;;0.10;0.10;;;;;;;7.72;30.38;100885.34;4933238;29;20118;-70
2023/04/17 03:52:46;;;;;;;0.10;0.10;;;;;;;7.78;30.27;100887.97;4935896;29;20051;-70
2023/04/17 03:55:13;;;;;;;0.25;0.25;;;;;;;7.76;30.08;100879.22;4948260;29;20404;-70
2023/04/17 03:57:40;;;;;;;0.35;0.20;;;;;;;7.83;30.20;100883.75;4934447;29;20055;-70
2023/04/17 04:00:10;;;;;;;0.20;0.20;;;;;;;7.88;29.95;100884.72;4932412;29;20063;-70
2023/04/17 04:02:46;;;;;;;0.20;0.20;;;;;;;7.86;29.99;100889.53;4917438;29;20433;-70
2023/04/17 04:05:15;;;;;;;0.52;0.20;;;;;;;7.97;29.99;100889.84;4917954;29;20058;-70
2023/04/17 04:07:42;;;;;;;0.20;0.20;;;;;;;8.05;29.96;100882.16;4932797;29;20062;-69
2023/04/17 04:10:09;;;;;;;0.20;0.20;;;;;;;8.04;29.69;100885.97;4950561;29;20047;-70
2023/04/17 04:12:36;;;;;;;0.20;0.20;;;;;;;8.01;29.91;100885.59;4949334;29;20493;-70
2023/04/17 04:15:02;;;;;;;0.20;0.20;;;;;;;8.06;30.02;100883.00;4932294;29;20051;-70
2023/04/17 04:17:32;;;;;;;0.20;0.20;;;;;;;8.19;30.08;100884.72;4902583;29;20059;-70
2023/04/17 04:19:59;;;;;;;0.30;0.20;;;;;;;8.27;29.84;100880.81;4949156;29;20055;-70
2023/04/17 04:22:26;;;;;;;0.27;0.27;;;;;;;8.29;29.61;100881.41;4916802;29;20067;-70
2023/04/17 04:24:56;;;;;;;0.20;0.20;;;;;;;8.38;29.49;100882.75;4933719;29;20373;-69
2023/04/17 04:27:31;;;;;;;0.75;0.28;;;;;;;8.55;29.40;100887.56;4931632;29;20459;-69
2023/04/17 04:30:01;;;;;;;0.20;0.20;;;;;;;8.66;29.32;100881.25;4948900;29;20055;-69
2023/04/17 04:32:33;;;;;;;0.20;0.20;;;;;;;8.73;29.00;100886.59;4949450;29;20106;-69
2023/04/17 04:35:00;;;;;;;0.10;0.10;;;;;;;8.86;28.83;100888.28;4933505;29;20131;-69
2023/04/17 04:37:28;;;;;;;0.25;0.25;;;;;;;9.00;28.76;100887.00;4928106;28;20047;-70
2023/04/17 04:40:00;;;;;;;0.20;0.20;;;;;;;9.11;28.42;100888.03;4920854;29;20055;-69
2023/04/17 04:42:28;;;;;;;0.20;0.20;;;;;;;9.10;28.44;100888.28;4912976;29;20035;-70
2023/04/17 04:45:20;;;;;;;0.28;0.22;;;;;;;9.04;28.34;100884.59;4928590;29;20059;-70
2023/04/17 04:47:48;;;;;;;0.20;0.20;;;;;;;9.08;28.44;100889.34;4928171;29;20060;-70
2023/04/17 04:50:14;;;;;;;;;;;;;;;9.07;28.24;100892.31;4927767;28;20052;-71
2023/04/17 04:52:40;;;;;;;0.20;0.20;;;;;;;9.03;28.27;100889.25;4939889;29;19927;-70
2023/04/17 04:55:16;;;;;;;0.20;0.20;;;;;;;9.15;27.88;100897.41;4929394;29;20492;-70
2023/04/17 04:57:47;;;;;;;0.20;0.20;;;;;;;9.22;27.80;100898.13;4912395;29;20066;-70
2023/04/17 05:00:16;;;;;;;0.43;0.20;;;;;;;9.29;27.63;100898.00;4933043;29;20051;-70
2023/04/17 05:02:45;;;;;;;0.20;0.20;;;;;;;9.34;27.54;100898.09;4932221;29;20047;-70
2023/04/17 05:05:13;;;;;;;0.20;0.20;;;;;;;9.44;27.64;100908.41;4914280;29;20082;-70
2023/04/17 05:07:38;;;;;;;;;;;;;;;9.51;27.60;100906.38;4930265;29;20063;-70
2023/04/17 05:10:09;;;;;;;0.20;0.20;;;;;;;9.56;27.85;100905.66;4912927;29;19933;-70
2023/04/17 05:12:40;;;;;;;0.20;0.20;;;;;;;9.50;28.13;100898.44;4930678;29;20516;-70
2023/04/17 05:15:09;;;;;;;0.20;0.20;;;;;;;9.48;27.98;100895.94;4914882;29;20448;-70
2023/04/17 05:17:36;;;;;;;0.30;0.30;;;;;;;9.53;28.08;100897.13;4913976;28;20044;-70
2023/04/17 05:20:05;;;;;;;0.30;0.30;;;;;;;9.52;28.17;100896.28;4923820;29;20058;-70
2023/04/17 05:22:36;;;;;;;0.50;0.30;;;;;;;9.56;28.11;100888.44;4929679;29;20047;-69
2023/04/17 05:25:12;;;;;;;0.28;0.20;;;;;;;9.61;28.04;100889.41;4911818;29;20142;-69
2023/04/17 05:27:39;;;;;;;0.20;0.20;;;;;;;9.74;27.97;100899.19;4895214;29;20051;-69
2023/04/17 05:30:07;;;;;;;0.20;0.20;;;;;;;9.87;27.89;100895.34;4932385;29;20055;-69
2023/04/17 05:32:34;;;;;;;0.20;0.20;;;;;;;10.04;27.78;100894.56;4933749;29;20314;-69
2023/04/17 05:35:08;;;;;;;1.05;0.40;;;;;;;10.19;27.72;100891.31;4921824;29;20051;-69
2023/04/17 05:37:37;;;;;;;0.20;0.20;;;;;;;10.18;27.51;100873.25;4927629;29;20083;-69
2023/04/17 05:40:06;;;;;;;0.20;0.20;;;;;;;10.45;27.36;100905.44;4933438;29;20055;-69
2023/04/17 05:42:33;;;;;;;0.20;0.20;;;;;;;10.52;27.22;100889.72;4917832;29;20048;-70
2023/04/17 05:45:00;;;;;;;0.38;0.38;;;;;;;10.66;27.05;100895.69;4934336;29;20052;-70
2023/04/17 05:47:26;;;;;;;0.30;0.30;;;;;;;10.75;27.26;100893.34;4916502;29;20052;-70
2023/04/17 05:49:56;;;;;;;0.30;0.30;;;;;;;10.82;26.60;100894.03;4916890;29;20138;-70
2023/04/17 05:52:25;;;;;;;0.25;0.22;;;;;;;10.92;26.58;100896.09;4931398;29;20150;-70
2023/04/17 05:54:53;;;;;;;0.35;0.35;;;;;;;11.01;26.44;100886.38;4950869;29;20431;-69
2023/04/17 05:57:19;;;;;;;0.30;0.30;;;;;;;11.15;26.11;100895.06;4910360;29;20059;-69
2023/04/17 05:59:48;;;;;;;0.30;0.30;;;;;;;11.33;25.91;100895.84;4925828;29;20591;-69
2023/04/17 06:02:15;;;;;;;0.20;0.20;;;;;;;11.61;25.68;100896.75;4918927;29;20047;-69
2023/04/17 06:04:41;;;;;;;0.30;0.30;;;;;;;11.78;25.33;100892.03;4926246;29;20040;-72
2023/04/17 06:07:08;;;;;;;0.47;0.30;;;;;;;12.02;25.07;100891.78;4940865;28;20039;-71
2023/04/17 06:09:35;;;;;;;0.20;0.20;;;;;;;12.31;24.75;100885.19;4905699;29;20051;-71
2023/04/17 06:12:03;;;;;;;0.20;0.20;;;;;;;12.44;24.60;100894.91;4932772;29;20044;-70
2023/04/17 06:14:30;;;;;;;0.52;0.30;;;;;;;12.30;24.39;100889.03;4929318;29;20090;-71
2023/04/17 06:16:58;;;;;;;;;;;;;;;12.27;24.66;100893.13;4923718;29;20056;-69
2023/04/17 06:19:24;;;;;;;;;;;;;;;12.35;24.64;100891.81;4933536;29;20099;-69
2023/04/17 06:21:51;;;;;;;0.20;0.20;;;;;;;12.41;24.57;100896.28;4936967;29;19933;-70
2023/04/17 06:24:18;;;;;;;0.35;0.30;;;;;;;12.38;24.70;100896.78;4919900;29;20047;-70
2023/04/17 06:26:46;;;;;;;0.20;0.20;;;;;;;12.31;24.86;100899.72;4932393;29;20506;-70
2023/04/17 06:29:14;;;;;;;0.20;0.20;;;;;;;12.31;24.88;100902.47;4944132;29;20058;-70
2023/04/17 06:31:42;;;;;;;0.40;0.35;;;;;;;12.36;24.55;100903.63;4933118;29;20051;-70
2023/04/17 06:34:08;;;;;;;0.30;0.30;;;;;;;12.39;24.59;100906.66;4930991;29;20048;-70
2023/04/17 06:36:39;;;;;;;0.55;0.22;;;;;;;12.49;24.39;100908.69;4932231;29;20094;-71
2023/04/17 06:39:07;;;;;;;0.30;0.30;;;;;;;12.55;24.53;100904.88;4912617;29;20138;-71
2023/04/17 06:41:34;;;;;;;0.23;0.23;;;;;;;12.60;24.43;100893.13;4933211;29;20059;-71
2023/04/17 06:44:00;;;;;;;0.20;0.20;;;;;;;12.61;24.53;100912.06;4915264;29;20055;-71
2023/04/17 06:46:44;;;;;;;0.28;0.22;;;;;;;12.42;24.44;100906.16;4930757;29;20507;-70
2023/04/17 06:49:10;;;;;;;0.25;0.20;;;;;;;12.25;24.26;100908.16;4929084;29;20431;-70
2023/04/17 06:51:36;;;;;;;0.30;0.30;;;;;;;12.16;24.60;100905.91;4928372;29;20123;-69
2023/04/17 06:54:03;;;;;;;0.30;0.30;;;;;;;12.11;24.65;100900.38;4943248;29;20051;-69
2023/04/17 06:56:29;;;;;;;0.30;0.30;;;;;;;12.19;24.65;100905.38;4919035;29;20055;-69
2023/04/17 06:58:56;;;;;;;0.20;0.20;;;;;;;12.39;24.26;100903.09;4946686;28;20051;-70
2023/04/17 07:01:23;;;;;;;0.52;0.30;;;;;;;12.45;24.18;100902.88;4924083;29;20557;-69
2023/04/17 07:03:50;;;;;;;0.30;0.30;;;;;;;12.65;24.15;100903.34;4931230;29;20415;-69
2023/04/17 07:06:18;;;;;;;0.30;0.30;;;;;;;12.82;23.72;100908.66;4931138;29;20583;-69
2023/04/17 07:08:44;;;;;;;;;;;;;;;13.03;23.65;100906.91;4941904;29;20079;-69
2023/04/17 07:11:11;;;;;;;0.30;0.30;;;;;;;13.15;23.65;100910.28;4929884;29;19932;-70
2023/04/17 07:13:37;;;;;;;0.82;0.30;;;;;;;13.28;23.45;100905.41;4930058;29;20439;-70
2023/04/17 07:16:04;;;;;;;0.30;0.30;;;;;;;13.29;23.55;100913.38;4930725;29;20476;-70
2023/04/17 07:18:31;;;;;;;0.30;0.30;;;;;;;13.45;23.48;100911.56;4931905;29;20048;-70
2023/04/17 07:20:59;;;;;;;0.38;0.30;;;;;;;13.45;23.81;100895.09;4933735;29;20047;-70
2023/04/17 07:23:25;;;;;;;0.30;0.30;;;;;;;13.62;23.58;100905.06;4933786;29;20050;-70
2023/04/17 07:25:51;;;;;;;0.30;0.30;;;;;;;13.68;23.69;100903.16;4952761;29;20051;-70
2023/04/17 07:28:18;;;;;;;0.35;0.35;;;;;;;13.94;23.74;100915.06;4950105;28;20141;-70
2023/04/17 07:30:44;;;;;;;0.30;0.30;;;;;;;14.28;23.19;100900.00;4950627;29;20540;-70
2023/04/17 07:33:11;;;;;;;0.60;0.30;;;;;;;14.56;22.94;100903.31;4933966;29;20507;-70
2023/04/17 07:35:37;;;;;;;0.52;0.38;;;;;;;14.65;23.09;100903.59;4933208;29;20098;-70
2023/04/17 07:38:05;;;;;;;0.40;0.40;;;;;;;14.79;23.10;100912.97;4933095;29;20051;-70
2023/04/17 07:40:34;;;;;;;0.40;0.40;;;;;;;14.71;22.86;100910.78;4932820;29;20087;-70
2023/04/17 07:43:00;;;;;;;0.93;0.47;;;;;;;14.76;22.99;100908.03;4949163;29;20076;-70
2023/04/17 07:45:27;;;;;;;0.30;0.30;;;;;;;15.02;22.47;100908.03;4947883;29;20063;-70
2023/04/17 07:47:53;;;;;;;0.73;0.40;;;;;;;15.14;22.72;100911.31;4933071;29;20051;-70
2023/04/17 07:50:20;;;;;;;0.30;0.30;;;;;;;15.33;22.40;100910.72;4932000;29;20303;-70
2023/04/17 07:52:46;;;;;;;0.20;0.20;;;;;;;15.14;22.62;100914.06;4947675;29;20047;-70
2023/04/17 07:55:15;;;;;;;0.30;0.30;;;;;;;14.80;22.81;100914.63;4947678;29;20055;-69
2023/04/17 07:57:42;;;;;;;0.30;0.30;;;;;;;14.66;23.22;100921.75;4915450;29;20054;-70
2023/04/17 08:00:09;;;;;;;0.38;0.30;;;;;;;14.59;23.34;100911.03;4950379;28;20142;-70
2023/04/17 08:02:40;;;;;;;0.30;0.30;;;;;;;14.42;23.43;100901.09;4948423;29;20094;-70
2023/04/17 08:05:08;;;;;;;0.30;0.30;;;;;;;14.44;23.55;100922.84;4930125;29;20051;-70
2023/04/17 08:07:34;;;;;;;0.40;0.40;;;;;;;14.77;22.92;100909.69;4913989;29;20303;-70
2023/04/17 08:10:00;;;;;;;0.40;0.40;;;;;;;15.31;22.51;100913.72;4931114;29;20047;-70
2023/04/17 08:12:28;;;;;;;0.30;0.30;;;;;;;15.98;21.85;100909.06;4932092;28;20074;-70
2023/04/17 08:14:55;;;;;;;0.30;0.30;;;;;;;16.50;20.96;100898.53;4931795;29;20326;-69
2023/04/17 08:17:22;;;;;;;0.35;0.35;;;;;;;17.07;20.33;100911.88;4945225;28;20051;-69
2023/04/17 08:19:56;;;;;;;0.40;0.40;;;;;;;17.00;20.14;100903.91;4945778;29;20075;-69
2023/04/17 08:22:24;;;;;;;0.30;0.30;;;;;;;16.92;20.13;100906.47;4949141;29;20049;-69
2023/04/17 08:24:56;;;;;;;0.30;0.30;;;;;;;16.53;20.34;100900.69;4947502;29;20541;-69
2023/04/17 08:27:23;;;;;;;0.30;0.30;;;;;;;16.39;20.67;100905.22;4946798;29;20054;-69
2023/04/17 08:29:52;;;;;;;0.57;0.30;;;;;;;16.27;20.47;100903.66;4929531;29;20051;-69
2023/04/17 08:32:19;;;;;;;0.30;0.30;;;;;;;15.81;20.24;100901.97;4925208;29;20047;-69
2023/04/17 08:34:45;;;;;;;0.30;0.30;;;;;;;15.97;20.49;100904.66;4931524;29;20576;-69
2023/04/17 08:37:11;;;;;;;0.40;0.40;;;;;;;16.66;19.67;100898.41;4950210;29;20062;-69
2023/04/17 08:39:38;;;;;;;0.63;0.40;;;;;;;17.63;18.78;100904.03;4931178;29;20110;-69
2023/04/17 08:42:07;;;;;;;0.40;0.40;;;;;;;18.13;18.26;100889.03;4931883;29;20055;-70
2023/04/17 08:44:33;;;;;;;0.50;0.50;;;;;;;18.27;17.64;100895.47;4931133;29;20153;-69
2023/04/17 08:47:03;;;;;;;0.60;0.60;;;;;;;17.89;17.79;100889.06;4930298;29;20159;-69
2023/04/17 08:49:31;;;;;;;0.47;0.47;;;;;;;18.08;17.68;100886.31;4946893;29;20043;-69
2023/04/17 08:52:00;;;;;;;0.50;0.50;;;;;;;18.15;17.74;100884.03;4949387;29;20078;-70
2023/04/17 08:54:27;;;;;;;0.30;0.30;;;;;;;17.95;18.00;100894.25;4946378;29;20454;-70
2023/04/17 08:56:53;;;;;;;0.38;0.38;;;;;;;17.61;17.78;100889.69;4932262;29;20050;-69
2023/04/17 08:59:21;;;;;;;0.40;0.40;;;;;;;17.49;18.07;100892.06;4932510;29;20062;-69
2023/04/17 09:02:01;;;;;;;;;;;;;;;17.26;18.44;100902.81;4951946;28;20047;-69
2023/04/17 09:04:35;;;;;;;0.40;0.40;;;;;;;17.21;18.75;100878.81;4936853;29;19933;-70
2023/04/17 09:07:02;;;;;;;0.40;0.40;;;;;;;17.51;18.53;100879.59;4937037;29;20114;-70
2023/04/17 09:09:45;;;;;;;0.30;0.30;;;;;;;18.04;17.63;100875.06;4936378;29;20118;-70
2023/04/17 09:12:12;;;;;;;0.50;0.50;;;;;;;17.88;18.07;100873.59;4936444;28;20051;-69
2023/04/17 09:14:38;;;;;;;0.80;0.80;;;;;;;18.15;17.74;100875.72;4950948;29;20051;-70
2023/04/17 09:17:06;;;;;;;1.15;0.70;;;;;;;19.63;16.84;100874.47;4951524;29;20051;-70
2023/04/17 09:19:32;;;;;;;0.70;0.70;;;;;;;21.19;15.79;100875.16;4951735;29;20102;-70
2023/04/17 09:22:16;;;;;;;1.40;0.60;;;;;;;21.60;14.88;100869.53;4933724;29;20125;-70
2023/04/17 09:24:46;;;;;;;0.70;0.70;;;;;;;21.49;15.06;100880.16;4947216;29;20050;-70
2023/04/17 09:27:19;;;;;;;0.90;0.90;;;;;;;21.66;14.70;100873.84;4934441;29;20059;-70
2023/04/17 09:29:58;;;;;;;0.60;0.60;;;;;;;21.59;15.13;100873.47;4952648;29;20501;-70
2023/04/17 09:32:26;;;;;;;0.40;0.40;;;;;;;20.08;15.36;100873.78;4951954;29;20118;-70
2023/04/17 09:34:53;;;;;;;0.50;0.50;;;;;;;18.58;16.40;100877.53;4934338;29;20051;-70
2023/04/17 09:37:19;;;;;;;0.40;0.40;;;;;;;18.30;16.83;100860.81;4951749;29;20062;-70
2023/04/17 09:39:57;;;;;;;0.60;0.60;;;;;;;18.61;16.09;100862.25;4932694;29;20130;-70
2023/04/17 09:42:24;;;;;;;0.50;0.50;;;;;;;19.05;16.53;100887.81;4934456;29;20450;-69
2023/04/17 09:44:50;;;;;;;0.60;0.60;;;;;;;18.97;16.43;100870.75;4950166;29;20422;-69
2023/04/17 09:47:17;;;;;;;0.60;0.60;;;;;;;18.89;17.02;100879.75;4950942;28;20112;-69
2023/04/17 09:49:48;;;;;;;0.82;0.50;;;;;;;18.91;16.74;100874.72;4950655;29;20047;-69
2023/04/17 09:52:15;;;;;;;0.40;0.40;;;;;;;18.56;17.03;100863.97;4934553;29;20523;-69
2023/04/17 09:54:43;;;;;;;0.43;0.43;;;;;;;18.21;17.59;100859.84;4952003;29;20055;-70
2023/04/17 09:57:10;;;;;;;0.40;0.40;;;;;;;17.88;18.05;100855.03;4934120;29;20146;-69
2023/04/17 09:59:38;;;;;;;0.40;0.40;;;;;;;17.94;18.18;100855.78;4950579;28;20445;-69
2023/04/17 10:02:07;;;;;;;0.30;0.30;;;;;;;17.64;18.29;100852.34;4952313;29;20062;-69
2023/04/17 10:04:34;;;;;;;0.40;0.40;;;;;;;17.36;18.34;100855.72;4934317;29;20529;-69
2023/04/17 10:07:03;;;;;;;0.40;0.40;;;;;;;17.19;18.49;100856.19;4904678;29;20059;-69
2023/04/17 10:09:29;;;;;;;0.30;0.30;;;;;;;17.19;18.65;100858.16;4934296;29;20829;-69
2023/04/17 10:11:57;;;;;;;0.30;0.30;;;;;;;17.32;18.75;100851.09;4952263;29;20059;-69
2023/04/17 10:14:26;;;;;;;0.40;0.40;;;;;;;17.21;19.08;100848.44;4933128;29;20089;-69
2023/04/17 10:16:53;;;;;;;0.38;0.38;;;;;;;16.95;19.10;100848.69;4935266;29;20055;-69
2023/04/17 10:19:25;;;;;;;0.30;0.30;;;;;;;16.88;19.35;100845.44;4935201;29;20047;-69
2023/04/17 10:22:24;;;;;;;0.30;0.30;;;;;;;16.66;19.56;100843.19;4952079;29;20059;-69
2023/04/17 10:25:22;;;;;;;0.40;0.40;;;;;;;16.85;19.41;100840.50;4934081;29;20078;-69
2023/04/17 10:27:53;;;;;;;0.30;0.30;;;;;;;17.36;18.88;100841.06;4949415;29;20045;-69
2023/04/17 10:30:25;;;;;;;0.30;0.30;;;;;;;17.33;19.11;100850.81;4951501;29;20112;-69
2023/04/17 10:33:23;;;;;;;0.30;0.30;;;;;;;16.99;19.30;100843.44;4932833;29;20050;-69
2023/04/17 10:35:50;;;;;;;0.30;0.30;;;;;;;16.70;19.87;100841.47;4950159;29;20507;-69
2023/04/17 10:38:30;;;;;;;0.30;0.30;;;;;;;16.43;20.28;100856.63;4918759;29;20058;-69
2023/04/17 10:41:01;;;;;;;0.30;0.30;;;;;;;16.21;20.30;100837.78;4933846;29;20148;-69
2023/04/17 10:43:28;;;;;;;0.30;0.30;;;;;;;16.27;20.37;100848.47;4938567;29;20047;-69
2023/04/17 10:45:57;;;;;;;0.30;0.30;;;;;;;16.41;20.20;100836.78;4938900;29;20126;-69
2023/04/17 10:48:28;;;;;;;0.30;0.30;;;;;;;16.41;20.35;100839.56;4934284;29;20153;-69
2023/04/17 10:50:55;;;;;;;0.38;0.30;;;;;;;16.37;20.11;100838.47;4951172;29;20058;-70
2023/04/17 10:53:42;;;;;;;0.40;0.30;;;;;;;16.41;19.93;100839.56;4951959;29;20142;-69
2023/04/17 10:56:11;;;;;;;0.30;0.30;;;;;;;16.36;20.24;100834.06;4950688;29;20066;-69
2023/04/17 10:58:54;;;;;;;0.30;0.30;;;;;;;16.39;20.30;100839.81;4948922;29;20487;-69
2023/04/17 11:01:24;;;;;;;0.32;0.30;;;;;;;16.27;20.32;100850.41;4950168;29;20058;-69
2023/04/17 11:03:51;;;;;;;0.30;0.30;;;;;;;16.08;20.52;100839.22;4933289;29;20058;-69
2023/04/17 11:06:19;;;;;;;0.28;0.28;;;;;;;16.18;20.57;100835.59;4932750;29;20173;-69
2023/04/17 11:08:46;;;;;;;0.30;0.30;;;;;;;16.21;20.73;100832.25;4948864;29;20055;-69
2023/04/17 11:11:16;;;;;;;0.30;0.30;;;;;;;16.33;20.31;100829.13;4918767;29;20126;-69
2023/04/17 11:13:45;;;;;;;0.30;0.30;;;;;;;16.41;20.33;100847.81;4949955;29;20406;-69
2023/04/17 11:16:12;;;;;;;0.32;0.32;;;;;;;16.27;20.77;100845.72;4932379;29;20078;-69
2023/04/17 11:18:38;;;;;;;0.20;0.20;;;;;;;16.18;20.45;100832.84;4951350;29;20051;-69
2023/04/17 11:21:05;;;;;;;0.30;0.30;;;;;;;16.18;20.79;100835.59;4930132;29;20048;-69
2023/04/17 11:23:32;;;;;;;0.50;0.40;;;;;;;16.27;20.48;100833.84;4939243;29;20307;-69
2023/04/17 11:25:59;;;;;;;0.30;0.30;;;;;;;16.38;20.56;100824.38;4950478;28;20047;-69
2023/04/17 11:28:27;;;;;;;0.30;0.30;;;;;;;16.48;20.55;100815.19;4934026;29;20062;-69
2023/04/17 11:30:54;;;;;;;0.30;0.30;;;;;;;16.31;20.81;100821.13;4934719;29;20105;-69
2023/04/17 11:33:21;;;;;;;;;;;;;;;16.36;20.78;100823.84;4934124;29;20059;-68
2023/04/17 11:35:47;;;;;;;0.50;0.50;;;;;;;16.83;20.17;100815.13;4950682;29;19940;-69
2023/04/17 11:38:19;;;;;;;0.40;0.40;;;;;;;17.56;19.56;100812.34;4931730;29;20047;-69